Queensgate, Washington
Current Conditions -  °F | °C
As of 2:53 AM on Wednesday 22 Oct 2014 (Local Time) from KPAE Reporting Station
Light Rain Light Rain  
Wind Chill: 54°   Ceiling: 4100
Heat Index: 54°   Visibility: 10mi
Dew Point: 48°   Wind: 8mph
Humidity: 80%   Direction: 160°SSE
Pressure: 29.68"   Gusts: NA
Location:  47.7527°N, 122.215°W
Report Text: KPAE 220953Z AUTO 16007KT 10SM -RA OVC041 12/09 A2968 RMK AO2 SLP049 P0004 T01220089
Loading
Personal Weather Stations






























Interactive Weather Map
Tropical Storm Tracking
New forecast layout! Learn more

10-Day Weather Forecast

Advertisements
Track Severe Weather on mobile